^^
Station Historical Data
Daily Summary for July 31, 2021 Units:  English    Metric   Both
Daily Weekly Monthly Yearly
  High: Low: Average:
Temperature: 62.6 °F 60.5 °F 62 °F
Dew Point: 56.2 °F 53 °F 54.5 °F
Humidity: 85% 71% 77%
Wind Speed: 2mph 1mph 1.1mph
Wind Gust: 3mph - -
Wind- - ESE
Pressure: 30.04 in 29.99 in -
Precipitation: 0.00 in    
 
 
Tabular Data for July 31, 2021
Time Temperature Dew Point Pressure Wind Wind Speed Wind Gust Humidity Rainfall Rate (Hourly) solar
00:00 62.4 °F 53.6 °F 30.04 in SE 1 mph 2 mph 73% 0.00 in 0 W/m2
00:05 62.4 °F 53.3 °F 30.04 in ESE 1 mph 2 mph 72% 0.00 in 0 W/m2
00:10 62.5 °F 53.7 °F 30.04 in East 1 mph 2 mph 73% 0.00 in 0 W/m2
00:15 62.5 °F 53.7 °F 30.04 in East 1 mph 2 mph 73% 0.00 in 0 W/m2
00:20 62.6 °F 54.6 °F 30.04 in East 1 mph 1 mph 75% 0.00 in 0 W/m2
00:25 62.6 °F 53.4 °F 30.04 in East 1 mph 2 mph 72% 0.00 in 0 W/m2
00:30 62.6 °F 54.2 °F 30.04 in ESE 1 mph 1 mph 74% 0.00 in 0 W/m2
00:35 62.6 °F 54.2 °F 30.04 in East 1 mph 1 mph 74% 0.00 in 0 W/m2
00:40 62.6 °F 54.2 °F 30.04 in NE 1 mph 1 mph 74% 0.00 in 0 W/m2
00:45 62.5 °F 53.7 °F 30.04 in SW 1 mph 1 mph 73% 0.00 in 0 W/m2
00:50 62.5 °F 53.7 °F 30.04 in East 1 mph 2 mph 73% 0.00 in 0 W/m2
00:55 62.4 °F 53.6 °F 30.04 in ESE 1 mph 2 mph 73% 0.00 in 0 W/m2
01:00 62.4 °F 53.6 °F 30.04 in East 1 mph 2 mph 73% 0.00 in 0 W/m2
01:05 62.4 °F 53.6 °F 30.04 in ESE 1 mph 2 mph 73% 0.00 in 0 W/m2
01:10 62.4 °F 54 °F 30.04 in ESE 1 mph 1 mph 74% 0.00 in 0 W/m2
01:15 62.4 °F 53.6 °F 30.04 in East 1 mph 1 mph 73% 0.00 in 0 W/m2
01:20 62.4 °F 53.3 °F 30.03 in SE 1 mph 3 mph 72% 0.00 in 0 W/m2
01:25 62.4 °F 54 °F 30.03 in WSW 1 mph 3 mph 74% 0.00 in 0 W/m2
01:30 62.5 °F 54.5 °F 30.03 in East 1 mph 2 mph 75% 0.00 in 0 W/m2
01:35 62.4 °F 53.6 °F 30.03 in ESE 1 mph 2 mph 73% 0.00 in 0 W/m2
01:40 62.4 °F 54 °F 30.03 in SE 1 mph 2 mph 74% 0.00 in 0 W/m2
01:45 62.4 °F 53.3 °F 30.03 in South 1 mph 2 mph 72% 0.00 in 0 W/m2
01:50 62.4 °F 53.6 °F 30.02 in ESE 1 mph 1 mph 73% 0.00 in 0 W/m2
01:55 62.4 °F 53.6 °F 30.02 in North 1 mph 1 mph 73% 0.00 in 0 W/m2
02:00 62.4 °F 53.3 °F 30.02 in SE 1 mph 1 mph 72% 0.00 in 0 W/m2
02:05 62.3 °F 53.2 °F 30.02 in ENE 1 mph 1 mph 72% 0.00 in 0 W/m2
02:10 62.3 °F 53.9 °F 30.02 in SE 1 mph 1 mph 74% 0.00 in 0 W/m2
02:15 62.4 °F 53.3 °F 30.02 in SE 1 mph 1 mph 72% 0.00 in 0 W/m2
02:20 62.3 °F 53.2 °F 30.02 in East 1 mph 2 mph 72% 0.00 in 0 W/m2
02:25 62.3 °F 53.2 °F 30.02 in SSW 1 mph 2 mph 72% 0.00 in 0 W/m2
02:30 62.4 °F 53.6 °F 30.02 in ENE 1 mph 1 mph 73% 0.00 in 0 W/m2
02:35 62.4 °F 53.3 °F 30.02 in ESE 1 mph 2 mph 72% 0.00 in 0 W/m2
02:40 62.5 °F 53.7 °F 30.02 in North 1 mph 1 mph 73% 0.00 in 0 W/m2
02:45 62.5 °F 53 °F 30.02 in ESE 1 mph 1 mph 71% 0.00 in 0 W/m2
02:50 62.5 °F 53.3 °F 30.01 in ESE 1 mph 1 mph 72% 0.00 in 0 W/m2
02:55 62.5 °F 53.7 °F 30.01 in SE 1 mph 2 mph 73% 0.00 in 0 W/m2
03:00 62.5 °F 53.7 °F 30.01 in ESE 1 mph 1 mph 73% 0.00 in 0 W/m2
03:05 62.3 °F 53.5 °F 30.01 in ENE 1 mph 1 mph 73% 0.00 in 0 W/m2
03:10 62.3 °F 53.5 °F 30.01 in North 1 mph 2 mph 73% 0.00 in 0 W/m2
03:15 62.2 °F 53.4 °F 30.01 in NE 1 mph 2 mph 73% 0.00 in 0 W/m2
03:20 62.2 °F 53.8 °F 30.01 in West 1 mph 1 mph 74% 0.00 in 0 W/m2
03:25 62.1 °F 53.7 °F 30.00 in North 1 mph 1 mph 74% 0.00 in 0 W/m2
03:30 62 °F 53.6 °F 30.00 in WNW 1 mph 2 mph 74% 0.00 in 0 W/m2
03:35 62.1 °F 53.7 °F 30.00 in West 1 mph 2 mph 74% 0.00 in 0 W/m2
03:40 62.1 °F 54.1 °F 30.00 in West 1 mph 1 mph 75% 0.00 in 0 W/m2
03:45 62.1 °F 54.4 °F 30.00 in ENE 1 mph 2 mph 76% 0.00 in 0 W/m2
03:50 62.1 °F 54.1 °F 30.00 in ESE 1 mph 1 mph 75% 0.00 in 0 W/m2
03:55 62 °F 54.3 °F 30.00 in ENE 1 mph 1 mph 76% 0.00 in 0 W/m2
04:00 62 °F 54.3 °F 30.00 in East 1 mph 1 mph 76% 0.00 in 0 W/m2
04:05 62 °F 55.4 °F 30.00 in NNE 1 mph 1 mph 79% 0.00 in 0 W/m2
04:10 62 °F 55.1 °F 30.00 in ENE 1 mph 1 mph 78% 0.00 in 0 W/m2
04:15 61.9 °F 55.3 °F 30.00 in ENE 1 mph 2 mph 79% 0.00 in 0 W/m2
04:20 61.9 °F 55.7 °F 30.00 in WSW 1 mph 1 mph 80% 0.00 in 0 W/m2
04:25 61.7 °F 55.5 °F 30.00 in West 1 mph 1 mph 80% 0.00 in 0 W/m2
04:30 61.8 °F 55.9 °F 30.00 in NNE 1 mph 2 mph 81% 0.00 in 0 W/m2
04:35 61.8 °F 55.6 °F 30.00 in ESE 1 mph 2 mph 80% 0.00 in 0 W/m2
04:40 61.6 °F 55.4 °F 30.00 in NE 1 mph 2 mph 80% 0.00 in 0 W/m2
04:45 61.6 °F 56 °F 30.00 in ENE 2 mph 2 mph 82% 0.00 in 0 W/m2
04:50 61.6 °F 55.7 °F 30.00 in East 1 mph 2 mph 81% 0.00 in 0 W/m2
04:55 61.5 °F 55.6 °F 30.00 in NE 1 mph 2 mph 81% 0.00 in 0 W/m2
05:00 61.5 °F 55.6 °F 30.01 in NNW 1 mph 1 mph 81% 0.00 in 0 W/m2
05:05 61.5 °F 55.6 °F 30.00 in North 1 mph 1 mph 81% 0.00 in 0 W/m2
05:10 61.5 °F 55.3 °F 30.00 in North 1 mph 1 mph 80% 0.00 in 0 W/m2
05:15 61.5 °F 55.6 °F 30.01 in ENE 1 mph 2 mph 81% 0.00 in 0 W/m2
05:20 61.4 °F 55.5 °F 30.00 in NW 1 mph 2 mph 81% 0.00 in 0 W/m2
05:25 61.4 °F 55.5 °F 30.00 in North 1 mph 2 mph 81% 0.00 in 0 W/m2
05:30 61.4 °F 55.9 °F 30.00 in NE 1 mph 1 mph 82% 0.00 in 0 W/m2
05:35 61.5 °F 55.6 °F 29.99 in NW 1 mph 1 mph 81% 0.00 in 0 W/m2
05:40 61.5 °F 56 °F 29.99 in North 1 mph 2 mph 82% 0.00 in 0 W/m2
05:45 61.6 °F 56 °F 29.99 in West 1 mph 2 mph 82% 0.00 in 0 W/m2
05:50 61.6 °F 56 °F 29.99 in West 1 mph 1 mph 82% 0.00 in 0 W/m2
05:55 61.5 °F 56 °F 29.99 in NNW 1 mph 1 mph 82% 0.00 in 0 W/m2
06:00 61.4 °F 55.9 °F 29.99 in NE 1 mph 1 mph 82% 0.00 in 0 W/m2
06:05 61.4 °F 55.9 °F 29.99 in NE 1 mph 1 mph 82% 0.00 in 0 W/m2
06:10 61.4 °F 56.2 °F 29.99 in NW 2 mph 2 mph 83% 0.00 in 0 W/m2
06:15 61.2 °F 56 °F 29.99 in ENE 2 mph 2 mph 83% 0.00 in 0 W/m2
06:20 61.1 °F 55.9 °F 29.99 in NNE 2 mph 2 mph 83% 0.00 in 0 W/m2
06:25 60.9 °F 55.7 °F 29.99 in NE 2 mph 2 mph 83% 0.00 in 5 W/m2
06:30 60.8 °F 55.9 °F 29.99 in North 2 mph 2 mph 84% 0.00 in 7 W/m2
06:35 60.7 °F 55.8 °F 30.00 in North 1 mph 2 mph 84% 0.00 in 9 W/m2
06:40 60.5 °F 55.6 °F 30.00 in NE 1 mph 1 mph 84% 0.00 in 12 W/m2
06:45 60.5 °F 55.6 °F 30.00 in NE 1 mph 1 mph 84% 0.00 in 14 W/m2
06:50 60.5 °F 56 °F 30.00 in WSW 1 mph 2 mph 85% 0.00 in 18 W/m2
Sand Point, Michigan, USA
Compliments of Weather Underground - 2 mb